createdAt,value
2018-01-21T00:01:58.866Z,0.79
2018-01-21T00:04:24.646Z,0.83
2018-01-21T00:06:50.395Z,0.90
2018-01-21T00:09:16.157Z,0.87
2018-01-21T00:11:41.886Z,0.77
2018-01-21T00:14:07.639Z,0.62
2018-01-21T00:16:33.405Z,0.60
2018-01-21T00:18:59.150Z,0.55
2018-01-21T00:21:24.935Z,0.55
2018-01-21T00:23:50.667Z,0.47
2018-01-21T00:26:16.413Z,0.39
2018-01-21T00:28:42.151Z,0.28
2018-01-21T00:31:07.886Z,0.24
2018-01-21T00:33:33.627Z,0.13
2018-01-21T00:35:59.379Z,0.11
2018-01-21T00:38:25.118Z,0.15
2018-01-21T00:40:50.870Z,0.07
2018-01-21T00:43:16.614Z,0.04
2018-01-21T00:45:42.367Z,-0.13
2018-01-21T00:48:08.117Z,-0.14
2018-01-21T00:50:33.874Z,-0.21
2018-01-21T00:52:59.635Z,-0.20
2018-01-21T00:55:25.378Z,-0.13
2018-01-21T00:57:51.146Z,-0.08
2018-01-21T01:00:16.898Z,-0.12
2018-01-21T01:02:42.635Z,-0.13
2018-01-21T01:05:08.410Z,-0.14
2018-01-21T01:07:34.154Z,-0.14
2018-01-21T01:09:59.890Z,-0.20
2018-01-21T01:12:25.631Z,-0.31
2018-01-21T01:14:51.366Z,-0.42
2018-01-21T01:17:17.110Z,-0.43
2018-01-21T01:19:42.852Z,-0.25
2018-01-21T01:22:08.607Z,-0.20
2018-01-21T01:24:34.334Z,-0.15
2018-01-21T01:27:00.086Z,-0.17
2018-01-21T01:29:25.819Z,-0.21
2018-01-21T01:31:51.551Z,-0.14
2018-01-21T01:34:17.291Z,-0.25
2018-01-21T01:36:43.036Z,-0.14
2018-01-21T01:39:08.795Z,-0.14
2018-01-21T01:41:34.568Z,-0.25
2018-01-21T01:44:00.310Z,-0.24
2018-01-21T01:46:26.038Z,-0.13
2018-01-21T01:48:53.594Z,-0.12
2018-01-21T01:51:19.326Z,-0.12
2018-01-21T01:53:45.090Z,-0.07
2018-01-21T01:56:10.823Z,0.00
2018-01-21T01:58:36.576Z,0.00
2018-01-21T02:01:02.319Z,0.02
2018-01-21T02:03:28.067Z,0.13
2018-01-21T02:05:53.807Z,0.08
2018-01-21T02:08:19.563Z,0.03
2018-01-21T02:10:45.301Z,0.07
2018-01-21T02:13:11.059Z,0.09
2018-01-21T02:15:36.814Z,0.13
2018-01-21T02:18:02.625Z,0.12
2018-01-21T02:20:28.326Z,0.17
2018-01-21T02:22:54.054Z,0.19
2018-01-21T02:25:19.805Z,0.21
2018-01-21T02:27:45.550Z,0.22
2018-01-21T02:30:11.301Z,0.22
2018-01-21T02:32:37.059Z,0.27
2018-01-21T02:35:02.810Z,0.23
2018-01-21T02:37:28.550Z,0.09
2018-01-21T02:39:54.311Z,0.12
2018-01-21T02:42:20.046Z,0.14
2018-01-21T02:44:45.812Z,0.06
2018-01-21T02:47:11.562Z,0.05
2018-01-21T02:49:37.319Z,-0.06
2018-01-21T02:52:03.060Z,-0.06
2018-01-21T02:54:28.810Z,-0.06
2018-01-21T02:56:54.546Z,-0.04
2018-01-21T02:59:20.280Z,0.08
2018-01-21T03:01:46.039Z,0.09
2018-01-21T03:04:11.773Z,0.15
2018-01-21T03:06:37.518Z,0.19
2018-01-21T03:09:03.274Z,0.28
2018-01-21T03:11:29.032Z,0.03
2018-01-21T03:13:54.755Z,-0.05
2018-01-21T03:16:20.514Z,-0.02
2018-01-21T03:18:46.259Z,-0.08
2018-01-21T03:21:12.012Z,-0.10
2018-01-21T03:23:37.754Z,-0.01
2018-01-21T03:26:03.514Z,0.03
2018-01-21T03:28:29.250Z,0.11
2018-01-21T03:30:54.986Z,0.20
2018-01-21T03:33:20.714Z,0.20
2018-01-21T03:35:46.467Z,0.04
2018-01-21T03:38:12.190Z,0.10
2018-01-21T03:40:37.939Z,0.20
2018-01-21T03:43:03.679Z,0.01
2018-01-21T03:45:29.418Z,-0.20
2018-01-21T03:47:55.181Z,-0.20
2018-01-21T03:50:20.954Z,-0.20
2018-01-21T03:52:46.706Z,-0.25
2018-01-21T03:55:12.466Z,-0.25
2018-01-21T03:57:38.214Z,-0.55
2018-01-21T04:00:03.954Z,-0.54
2018-01-21T04:02:29.697Z,-0.57
2018-01-21T04:04:55.438Z,-0.61
2018-01-21T04:07:21.187Z,-0.63
2018-01-21T04:09:46.918Z,-0.43
2018-01-21T04:12:13.566Z,-0.37
2018-01-21T04:14:39.302Z,-0.75
2018-01-21T04:17:05.051Z,-0.66
2018-01-21T04:19:30.773Z,-0.53
2018-01-21T04:21:56.531Z,-0.65
2018-01-21T04:24:22.283Z,-0.72
2018-01-21T04:26:49.705Z,-0.64
2018-01-21T04:29:15.458Z,-0.95
2018-01-21T04:31:41.215Z,-0.94
2018-01-21T04:34:06.960Z,-0.94
2018-01-21T04:36:32.718Z,-1.05
2018-01-21T04:38:58.463Z,-0.94
2018-01-21T04:41:24.202Z,-1.19
2018-01-21T04:43:49.949Z,-1.33
2018-01-21T04:46:15.686Z,-1.38
2018-01-21T04:48:41.429Z,-1.19
2018-01-21T04:51:07.174Z,-1.08
2018-01-21T04:53:32.950Z,-1.24
2018-01-21T04:55:58.687Z,-1.13
2018-01-21T04:58:24.451Z,-1.42
2018-01-21T05:00:50.202Z,-1.18
2018-01-21T05:03:15.961Z,-1.22
2018-01-21T05:05:41.714Z,-1.27
2018-01-21T05:08:07.474Z,-1.32
2018-01-21T05:10:33.230Z,-1.25
2018-01-21T05:12:58.994Z,-1.48
2018-01-21T05:15:24.731Z,-1.37
2018-01-21T05:17:50.491Z,-1.16
2018-01-21T05:20:16.230Z,-1.39
2018-01-21T05:22:41.986Z,-1.32
2018-01-21T05:25:07.736Z,-1.46
2018-01-21T05:27:33.493Z,-1.37
2018-01-21T05:29:59.232Z,-1.43
2018-01-21T05:32:24.978Z,-1.50
2018-01-21T05:34:50.721Z,-1.41
2018-01-21T05:37:16.462Z,-1.42
2018-01-21T05:39:42.218Z,-1.42
2018-01-21T05:42:07.961Z,-1.40
2018-01-21T05:44:33.707Z,-1.71
2018-01-21T05:46:59.446Z,-1.84
2018-01-21T05:49:25.200Z,-1.62
2018-01-21T05:51:50.945Z,-1.77
2018-01-21T05:54:16.726Z,-1.70
2018-01-21T05:56:42.465Z,-1.63
2018-01-21T05:59:08.212Z,-1.52
2018-01-21T06:01:33.970Z,-1.73
2018-01-21T06:03:59.726Z,-1.87
2018-01-21T06:06:25.467Z,-1.82
2018-01-21T06:08:51.245Z,-1.62
2018-01-21T06:11:16.981Z,-1.50
2018-01-21T06:13:42.734Z,-1.58
2018-01-21T06:16:08.486Z,-1.59
2018-01-21T06:18:34.490Z,-1.56
2018-01-21T06:21:00.258Z,-1.46
2018-01-21T06:23:26.001Z,-1.38
2018-01-21T06:25:51.754Z,-1.43
2018-01-21T06:28:17.503Z,-1.42
2018-01-21T06:30:43.254Z,-1.19
2018-01-21T06:33:09.001Z,-1.09
2018-01-21T06:35:34.746Z,-1.03
2018-01-21T06:38:00.483Z,-1.22
2018-01-21T06:40:26.238Z,-1.33
2018-01-21T06:42:51.984Z,-1.32
2018-01-21T06:45:17.727Z,-1.17
2018-01-21T06:47:43.487Z,-1.20
2018-01-21T06:50:09.265Z,-1.15
2018-01-21T06:52:35.001Z,-1.16
2018-01-21T06:55:00.754Z,-1.19
2018-01-21T06:57:26.510Z,-1.12
2018-01-21T06:59:52.254Z,-1.01
2018-01-21T07:02:18.011Z,-1.04
2018-01-21T07:04:43.754Z,-0.84
2018-01-21T07:07:09.517Z,-1.03
2018-01-21T07:09:35.263Z,-1.16
2018-01-21T07:12:01.022Z,-0.82
2018-01-21T07:14:26.766Z,-0.77
2018-01-21T07:16:52.515Z,-0.66
2018-01-21T07:19:18.263Z,-0.78
2018-01-21T07:21:44.007Z,-0.82
2018-01-21T07:24:09.767Z,-0.77
2018-01-21T07:26:35.521Z,-0.75
2018-01-21T07:29:01.278Z,-0.84
2018-01-21T07:31:27.031Z,-0.89
2018-01-21T07:33:52.766Z,-0.88
2018-01-21T07:36:18.511Z,-0.98
2018-01-21T07:38:44.253Z,-0.99
2018-01-21T07:41:10.003Z,-0.89
2018-01-21T07:43:35.759Z,-0.91
2018-01-21T07:46:01.523Z,-1.02
2018-01-21T07:48:27.263Z,-1.01
2018-01-21T07:50:53.018Z,-1.01
2018-01-21T07:53:18.786Z,-0.92
2018-01-21T07:55:44.538Z,-1.08
2018-01-21T07:58:10.286Z,-1.13
2018-01-21T08:00:36.026Z,-1.13
2018-01-21T08:03:01.775Z,-1.10
2018-01-21T08:05:27.526Z,-1.04
2018-01-21T08:07:53.290Z,-1.08
2018-01-21T08:10:19.030Z,-1.09
2018-01-21T08:12:44.793Z,-1.22
2018-01-21T08:15:10.543Z,-1.18
2018-01-21T08:17:42.536Z,-1.06
2018-01-21T08:20:08.283Z,-1.12
2018-01-21T08:22:34.043Z,-1.01
2018-01-21T08:24:59.767Z,-1.20
2018-01-21T08:27:25.522Z,-1.07
2018-01-21T08:29:51.257Z,-0.89
2018-01-21T08:32:16.995Z,-0.91
2018-01-21T08:37:53.707Z,-1.22
2018-01-21T08:40:25.440Z,-0.93
2018-01-21T08:42:51.207Z,-0.95
2018-01-21T08:45:16.963Z,-0.87
2018-01-21T08:47:42.705Z,-0.92
2018-01-21T08:50:08.452Z,-0.85
2018-01-21T08:52:34.195Z,-0.88
2018-01-21T08:54:59.946Z,-0.84
2018-01-21T08:57:25.698Z,-0.69
2018-01-21T08:59:51.463Z,-0.72
2018-01-21T09:02:17.210Z,-0.83
2018-01-21T09:04:42.964Z,-0.74
2018-01-21T09:07:09.436Z,-0.66
2018-01-21T09:09:36.901Z,-0.72
2018-01-21T09:12:02.642Z,-0.91
2018-01-21T09:14:28.398Z,-0.83
2018-01-21T09:16:54.159Z,-0.61
2018-01-21T09:19:19.922Z,-0.74
2018-01-21T09:21:45.671Z,-0.67
2018-01-21T09:24:11.424Z,-0.69
2018-01-21T09:26:37.186Z,-0.64
2018-01-21T09:29:02.979Z,-0.71
2018-01-21T09:31:28.723Z,-0.73
2018-01-21T09:33:54.470Z,-0.58
2018-01-21T09:36:20.540Z,-0.61
2018-01-21T09:38:46.443Z,-0.56
2018-01-21T09:41:12.413Z,-0.54
2018-01-21T09:43:39.097Z,-0.30
2018-01-21T09:46:05.914Z,-0.28
2018-01-21T09:48:32.873Z,-0.26
2018-01-21T09:51:00.436Z,-0.35
2018-01-21T09:53:27.057Z,-0.57
2018-01-21T09:55:54.145Z,-0.46
2018-01-21T09:58:19.889Z,-0.40
2018-01-21T10:00:45.675Z,-0.72
2018-01-21T10:03:11.402Z,-0.57
2018-01-21T10:05:37.194Z,-0.39
2018-01-21T10:08:02.962Z,-0.67
2018-01-21T10:10:28.706Z,-0.52
2018-01-21T10:12:54.466Z,-0.61
2018-01-21T10:15:20.206Z,-0.40
2018-01-21T10:17:45.973Z,-0.24
2018-01-21T10:20:11.823Z,-0.31
2018-01-21T10:22:38.887Z,-0.52
2018-01-21T10:25:04.674Z,-0.49
2018-01-21T10:27:30.597Z,-0.09
2018-01-21T10:29:56.350Z,-0.56
2018-01-21T10:32:22.099Z,-0.36
2018-01-21T10:34:47.839Z,-0.21
2018-01-21T10:37:13.582Z,0.00
2018-01-21T10:39:39.326Z,-0.06
2018-01-21T10:42:05.073Z,0.12
2018-01-21T10:44:30.806Z,0.07
2018-01-21T10:46:56.547Z,-0.09
2018-01-21T10:49:22.282Z,0.09
2018-01-21T10:51:55.044Z,-0.07
2018-01-21T10:54:20.792Z,-0.35
2018-01-21T10:56:46.586Z,-0.32
2018-01-21T10:59:12.338Z,-0.31
2018-01-21T11:01:38.205Z,-0.15
2018-01-21T11:04:04.047Z,0.20
2018-01-21T11:06:29.787Z,0.39
2018-01-21T11:08:55.526Z,0.15
2018-01-21T11:11:21.263Z,0.40
2018-01-21T11:13:47.015Z,0.16
2018-01-21T11:16:12.760Z,0.19
2018-01-21T11:18:38.523Z,0.32
2018-01-21T11:21:04.278Z,0.47
2018-01-21T11:23:30.035Z,0.36
2018-01-21T11:25:55.859Z,0.33
2018-01-21T11:28:21.944Z,-0.17
2018-01-21T11:33:20.162Z,-0.08
2018-01-21T11:35:45.897Z,-0.16
2018-01-21T11:38:11.650Z,0.03
2018-01-21T11:40:37.398Z,0.19
2018-01-21T11:43:03.149Z,0.00
2018-01-21T11:45:28.894Z,0.06
2018-01-21T11:47:54.663Z,-0.08
2018-01-21T11:50:20.435Z,-0.10
2018-01-21T11:52:46.179Z,0.07
2018-01-21T11:55:11.934Z,0.12
2018-01-21T11:57:37.695Z,0.16
2018-01-21T12:00:03.453Z,0.29
2018-01-21T12:02:29.203Z,0.18
2018-01-21T12:04:54.971Z,0.09
2018-01-21T12:07:20.718Z,0.05
2018-01-21T12:09:46.472Z,-0.06
2018-01-21T12:12:12.210Z,0.05
2018-01-21T12:14:37.962Z,0.13
2018-01-21T12:17:03.710Z,0.04
2018-01-21T12:19:29.465Z,0.10
2018-01-21T12:21:55.207Z,0.12
2018-01-21T12:24:20.955Z,-0.03
2018-01-21T12:26:46.706Z,0.20
2018-01-21T12:29:12.458Z,0.15
2018-01-21T12:31:38.201Z,0.19
2018-01-21T12:34:04.235Z,0.19
2018-01-21T12:36:30.009Z,0.25
2018-01-21T12:38:55.758Z,0.03
2018-01-21T12:41:21.523Z,0.00
2018-01-21T12:43:47.267Z,-0.07
2018-01-21T12:46:13.028Z,-0.16
2018-01-21T12:48:38.776Z,-0.15
2018-01-21T12:51:04.544Z,0.00
2018-01-21T12:53:30.295Z,-0.15
2018-01-21T12:55:56.155Z,-0.19
2018-01-21T12:58:21.903Z,-0.07
2018-01-21T13:00:47.658Z,0.02
2018-01-21T13:03:13.414Z,0.05
2018-01-21T13:05:39.185Z,0.20
2018-01-21T13:08:04.926Z,-0.07
2018-01-21T13:10:30.891Z,0.17
2018-01-21T13:12:56.630Z,0.18
2018-01-21T13:15:22.607Z,0.26
2018-01-21T13:17:48.383Z,0.22
2018-01-21T13:20:14.126Z,0.07
2018-01-21T13:22:39.874Z,0.05
2018-01-21T13:25:05.614Z,-0.01
2018-01-21T13:27:31.373Z,-0.06
2018-01-21T13:29:57.110Z,0.20
2018-01-21T13:32:22.851Z,0.29
2018-01-21T13:34:48.896Z,0.22
2018-01-21T13:37:14.640Z,0.28
2018-01-21T13:39:40.447Z,0.27
2018-01-21T13:42:06.217Z,0.18
2018-01-21T13:44:36.407Z,0.23
2018-01-21T13:47:02.185Z,0.11
2018-01-21T13:49:28.977Z,0.10
2018-01-21T13:51:54.762Z,0.06
2018-01-21T13:54:20.519Z,0.01
2018-01-21T13:56:46.303Z,0.03
2018-01-21T13:59:12.049Z,0.08
2018-01-21T14:01:37.849Z,0.26
2018-01-21T14:04:03.608Z,0.08
2018-01-21T14:06:29.423Z,0.00
2018-01-21T14:08:55.193Z,-0.01
2018-01-21T14:11:20.935Z,-0.14
2018-01-21T14:13:46.690Z,-0.21
2018-01-21T14:16:12.438Z,-0.14
2018-01-21T14:18:38.195Z,-0.31
2018-01-21T14:21:03.946Z,-0.35
2018-01-21T14:23:29.863Z,-0.25
2018-01-21T14:25:55.645Z,-0.23
2018-01-21T14:28:21.390Z,-0.16
2018-01-21T14:30:47.133Z,-0.13
2018-01-21T14:33:12.890Z,-0.14
2018-01-21T14:35:38.775Z,-0.22
2018-01-21T14:38:04.554Z,-0.26
2018-01-21T14:40:30.297Z,-0.30
2018-01-21T14:42:56.057Z,-0.38
2018-01-21T14:45:21.807Z,-0.44
2018-01-21T14:47:47.703Z,-0.34
2018-01-21T14:50:13.467Z,-0.22
2018-01-21T14:52:39.218Z,-0.37
2018-01-21T14:55:05.780Z,-0.33
2018-01-21T14:57:32.618Z,-0.33
2018-01-21T14:59:59.236Z,-0.38
2018-01-21T15:02:26.202Z,-0.42
2018-01-21T15:04:52.951Z,-0.42
2018-01-21T15:07:19.990Z,-0.52
2018-01-21T15:09:45.841Z,-0.45
2018-01-21T15:12:11.587Z,-0.43
2018-01-21T15:14:37.705Z,-0.59
2018-01-21T15:17:03.454Z,-0.58
2018-01-21T15:19:29.360Z,-0.61
2018-01-21T15:21:55.098Z,-0.58
2018-01-21T15:24:21.316Z,-0.55
2018-01-21T15:26:48.282Z,-0.45
2018-01-21T15:29:15.043Z,-0.46
2018-01-21T15:31:40.855Z,-0.43
2018-01-21T15:34:06.598Z,-0.44
2018-01-21T15:36:32.358Z,-0.43
2018-01-21T15:38:58.173Z,-0.37
2018-01-21T15:41:23.932Z,-0.45
2018-01-21T15:43:49.686Z,-0.44
2018-01-21T15:46:15.435Z,-0.36
2018-01-21T15:48:41.190Z,-0.40
2018-01-21T15:51:06.935Z,-0.40
2018-01-21T15:53:32.671Z,-0.26
2018-01-21T15:55:58.422Z,-0.30
2018-01-21T15:58:24.167Z,-0.29
2018-01-21T16:00:49.914Z,-0.27
2018-01-21T16:03:15.654Z,-0.25
2018-01-21T16:05:41.406Z,-0.17
2018-01-21T16:08:07.182Z,-0.21
2018-01-21T16:10:32.934Z,-0.22
2018-01-21T16:12:58.694Z,-0.23
2018-01-21T16:15:24.445Z,-0.23
2018-01-21T16:17:50.196Z,-0.18
2018-01-21T16:20:15.943Z,-0.19
2018-01-21T16:22:41.701Z,-0.20
2018-01-21T16:25:07.536Z,-0.26
2018-01-21T16:27:33.281Z,-0.22
2018-01-21T16:29:59.024Z,-0.19
2018-01-21T16:32:24.790Z,-0.18
2018-01-21T16:34:50.527Z,-0.18
2018-01-21T16:37:28.715Z,-0.10
2018-01-21T16:39:54.475Z,-0.13
2018-01-21T16:42:20.279Z,-0.31
2018-01-21T16:44:46.004Z,-0.38
2018-01-21T16:47:11.758Z,-0.39
2018-01-21T16:49:37.566Z,-0.53
2018-01-21T16:52:03.314Z,-0.53
2018-01-21T16:54:29.113Z,-0.62
2018-01-21T16:56:54.828Z,-0.62
2018-01-21T16:59:20.568Z,-0.78
2018-01-21T17:01:46.303Z,-0.81
2018-01-21T17:04:12.055Z,-0.77
2018-01-21T17:06:37.801Z,-0.75
2018-01-21T17:09:03.566Z,-0.72
2018-01-21T17:11:29.304Z,-0.73
2018-01-21T17:13:55.091Z,-0.86
2018-01-21T17:16:20.830Z,-1.00
2018-01-21T17:18:46.586Z,-0.96
2018-01-21T17:21:12.331Z,-0.98
2018-01-21T17:23:38.094Z,-0.98
2018-01-21T17:26:03.842Z,-0.98
2018-01-21T17:28:29.620Z,-1.00
2018-01-21T17:30:55.374Z,-0.95
2018-01-21T17:33:21.114Z,-0.89
2018-01-21T17:35:46.867Z,-0.99
2018-01-21T17:38:12.608Z,-0.95
2018-01-21T17:40:38.366Z,-0.96
2018-01-21T17:43:04.106Z,-0.96
2018-01-21T17:45:29.867Z,-1.03
2018-01-21T17:47:55.615Z,-0.95
2018-01-21T17:50:21.372Z,-0.84
2018-01-21T17:52:47.119Z,-0.80
2018-01-21T17:55:12.891Z,-0.77
2018-01-21T17:57:38.647Z,-0.73
2018-01-21T18:00:04.414Z,-0.70
2018-01-21T18:02:30.170Z,-0.74
2018-01-21T18:04:55.906Z,-0.68
2018-01-21T18:07:21.666Z,-0.60
2018-01-21T18:09:47.442Z,-0.57
2018-01-21T18:12:13.178Z,-0.55
2018-01-21T18:14:38.927Z,-0.55
2018-01-21T18:17:04.686Z,-0.53
2018-01-21T18:19:30.421Z,-0.48
2018-01-21T18:21:56.191Z,-0.50
2018-01-21T18:24:21.935Z,-0.47
2018-01-21T18:26:47.695Z,-0.44
2018-01-21T18:29:13.452Z,-0.43
2018-01-21T18:31:39.212Z,-0.38
2018-01-21T18:34:04.950Z,-0.34
2018-01-21T18:36:30.776Z,-0.28
2018-01-21T18:38:56.478Z,-0.31
2018-01-21T18:41:22.239Z,-0.30
2018-01-21T18:43:47.977Z,-0.24
2018-01-21T18:46:13.716Z,-0.22
2018-01-21T18:48:39.464Z,-0.27
2018-01-21T18:51:05.265Z,-0.26
2018-01-21T18:53:31.006Z,-0.30
2018-01-21T18:55:56.775Z,-0.24
2018-01-21T18:58:22.533Z,-0.29
2018-01-21T19:00:48.274Z,-0.23
2018-01-21T19:03:14.031Z,-0.25
2018-01-21T19:05:39.775Z,-0.29
2018-01-21T19:08:05.531Z,-0.27
2018-01-21T19:10:31.286Z,-0.26
2018-01-21T19:12:57.047Z,-0.28
2018-01-21T19:15:22.828Z,-0.22
2018-01-21T19:17:48.558Z,-0.23
2018-01-21T19:20:14.304Z,-0.21
2018-01-21T19:22:40.072Z,-0.18
2018-01-21T19:25:05.813Z,-0.19
2018-01-21T19:27:31.574Z,-0.14
2018-01-21T19:29:57.322Z,-0.14
2018-01-21T19:32:23.075Z,-0.15
2018-01-21T19:34:48.825Z,-0.13
2018-01-21T19:37:14.578Z,-0.07
2018-01-21T19:43:00.535Z,-0.05
2018-01-21T19:45:26.299Z,-0.03
2018-01-21T19:47:52.075Z,-0.02
2018-01-21T19:50:17.829Z,-0.01
2018-01-21T19:52:43.595Z,0.02
2018-01-21T19:55:09.346Z,0.04
2018-01-21T19:57:35.099Z,0.04
2018-01-21T20:00:00.847Z,0.05
2018-01-21T20:02:26.602Z,0.07
2018-01-21T20:04:52.338Z,0.06
2018-01-21T20:07:18.087Z,0.08
2018-01-21T20:09:43.838Z,0.07
2018-01-21T20:12:09.575Z,0.06
2018-01-21T20:14:35.338Z,0.06
2018-01-21T20:17:01.078Z,0.07
2018-01-21T20:19:26.857Z,0.07
2018-01-21T20:21:52.568Z,0.03
2018-01-21T20:24:18.402Z,0.05
2018-01-21T20:26:44.170Z,0.04
2018-01-21T20:29:09.931Z,0.00
2018-01-21T20:31:35.694Z,0.09
2018-01-21T20:34:01.454Z,0.06
2018-01-21T20:36:27.192Z,-0.01
2018-01-21T20:38:52.951Z,-0.01
2018-01-21T20:41:18.707Z,0.01
2018-01-21T20:43:44.470Z,0.00
2018-01-21T20:46:10.217Z,-0.04
2018-01-21T20:48:35.971Z,-0.10
2018-01-21T20:51:07.993Z,-0.06
2018-01-21T20:53:39.832Z,-0.04
2018-01-21T20:56:05.591Z,-0.04
2018-01-21T20:58:31.330Z,-0.13
2018-01-21T21:00:57.078Z,-0.13
2018-01-21T21:03:22.832Z,-0.15
2018-01-21T21:05:48.587Z,-0.15
2018-01-21T21:08:14.342Z,-0.20
2018-01-21T21:10:40.109Z,-0.23
2018-01-21T21:13:05.872Z,-0.27
2018-01-21T21:15:31.626Z,-0.31
2018-01-21T21:17:57.363Z,-0.26
2018-01-21T21:20:23.122Z,-0.31
2018-01-21T21:22:48.863Z,-0.28
2018-01-21T21:25:14.618Z,-0.29
2018-01-21T21:27:40.357Z,-0.33
2018-01-21T21:30:06.118Z,-0.35
2018-01-21T21:32:31.862Z,-0.32
2018-01-21T21:34:57.602Z,-0.33
2018-01-21T21:37:23.368Z,-0.33
2018-01-21T21:39:49.115Z,-0.35
2018-01-21T21:42:14.889Z,-0.39
2018-01-21T21:44:40.638Z,-0.34
2018-01-21T21:47:06.399Z,-0.37
2018-01-21T21:49:32.154Z,-0.39
2018-01-21T21:52:05.031Z,-0.35
2018-01-21T21:54:30.822Z,-0.40
2018-01-21T21:56:57.882Z,-0.35
2018-01-21T21:59:23.622Z,-0.35
2018-01-21T22:01:49.390Z,-0.34
2018-01-21T22:04:15.202Z,-0.31
2018-01-21T22:06:40.990Z,-0.33
2018-01-21T22:09:06.748Z,-0.30
2018-01-21T22:11:32.503Z,-0.29
2018-01-21T22:13:58.259Z,-0.31
2018-01-21T22:16:24.037Z,-0.35
2018-01-21T22:18:49.800Z,-0.34
2018-01-21T22:21:15.551Z,-0.33
2018-01-21T22:23:41.333Z,-0.29
2018-01-21T22:26:07.070Z,-0.28
2018-01-21T22:28:32.823Z,-0.29
2018-01-21T22:30:58.566Z,-0.26
2018-01-21T22:33:24.322Z,-0.32
2018-01-21T22:35:50.073Z,-0.24
2018-01-21T22:38:15.826Z,-0.26
2018-01-21T22:40:41.590Z,-0.24
2018-01-21T22:43:07.760Z,-0.26
2018-01-21T22:45:33.551Z,-0.33
2018-01-21T22:47:59.320Z,-0.35
2018-01-21T22:50:25.065Z,-0.35
2018-01-21T22:52:50.853Z,-0.37
2018-01-21T22:55:16.635Z,-0.38
2018-01-21T22:57:42.374Z,-0.39
2018-01-21T23:00:08.126Z,-0.38
2018-01-21T23:02:33.953Z,-0.35
2018-01-21T23:04:59.722Z,-0.33
2018-01-21T23:07:25.458Z,-0.33
2018-01-21T23:09:51.211Z,-0.36
2018-01-21T23:12:16.991Z,-0.34
2018-01-21T23:14:42.739Z,-0.31
2018-01-21T23:17:08.495Z,-0.34
2018-01-21T23:19:34.271Z,-0.31
2018-01-21T23:22:00.379Z,-0.33
2018-01-21T23:24:26.135Z,-0.31
2018-01-21T23:26:51.892Z,-0.27
2018-01-21T23:29:17.647Z,-0.30
2018-01-21T23:31:43.549Z,-0.30
2018-01-21T23:34:09.326Z,-0.31
2018-01-21T23:36:35.075Z,-0.33
2018-01-21T23:39:00.819Z,-0.29
2018-01-21T23:41:26.571Z,-0.27
2018-01-21T23:43:52.330Z,-0.28
2018-01-21T23:46:18.080Z,-0.24
2018-01-21T23:48:43.845Z,-0.26
2018-01-21T23:51:09.595Z,-0.27
2018-01-21T23:53:36.062Z,-0.27
2018-01-21T23:56:01.863Z,-0.22
2018-01-21T23:58:27.610Z,-0.24
